Time;durP1;ratioP1;P1;durP2;ratioP2;P2;SDS_P1;SDS_P2;PMS_P1;PMS_P2;Temp;Humidity;BMP_temperature;BMP_pressure;BME280_temperature;BME280_humidity;BME280_pressure;Samples;Min_cycle;Max_cycle;Signal;HPM_P1;HPM_P2
2023/08/01 00:02:18;;;;;;;26.95;5.55;;;;;;;;;;5013239;28;20390;-68
2023/08/01 00:04:44;;;;;;;26.58;6.35;;;;;;;;;;5015534;28;20116;-68
2023/08/01 00:07:09;;;;;;;30.52;6.35;;;;;;;;;;5018533;28;20059;-68
2023/08/01 00:09:34;;;;;;;32.10;6.32;;;;;;;;;;5015287;28;20072;-69
2023/08/01 00:12:00;;;;;;;27.98;6.75;;;;;;;;;;5021484;28;20070;-68
2023/08/01 00:14:25;;;;;;;22.10;5.47;;;;;;;;;;5014020;28;20481;-69
2023/08/01 00:16:51;;;;;;;26.83;5.40;;;;;;;;;;5014226;28;20664;-68
2023/08/01 00:19:16;;;;;;;20.48;5.82;;;;;;;;;;5013477;28;20766;-68
2023/08/01 00:21:41;;;;;;;24.00;5.50;;;;;;;;;;5013237;28;20029;-68
2023/08/01 00:24:08;;;;;;;25.50;5.55;;;;;;;;;;5017136;28;20095;-68
2023/08/01 00:26:33;;;;;;;20.30;6.00;;;;;;;;;;5014488;28;20080;-68
2023/08/01 00:28:59;;;;;;;26.25;5.20;;;;;;;;;;5013245;28;20034;-68
2023/08/01 00:31:24;;;;;;;26.95;5.65;;;;;;;;;;5017714;28;20064;-69
2023/08/01 00:33:49;;;;;;;21.85;5.65;;;;;;;;;;5012554;28;20042;-68
2023/08/01 00:36:15;;;;;;;23.98;6.65;;;;;;;;;;5014865;28;20442;-68
2023/08/01 00:38:42;;;;;;;18.35;5.30;;;;;;;;;;5013318;28;20103;-68
2023/08/01 00:41:08;;;;;;;32.75;5.78;;;;;;;;;;5021878;28;20038;-68
2023/08/01 00:43:33;;;;;;;28.27;5.63;;;;;;;;;;5016782;28;20026;-68
2023/08/01 00:46:00;;;;;;;19.55;5.00;;;;;;;;;;5015897;28;20034;-69
2023/08/01 00:48:26;;;;;;;19.65;4.93;;;;;;;;;;5011732;28;20042;-68
2023/08/01 00:50:52;;;;;;;23.33;5.18;;;;;;;;;;5013378;28;20032;-68
2023/08/01 00:53:18;;;;;;;22.30;5.15;;;;;;;;;;5011888;28;20030;-68
2023/08/01 00:55:44;;;;;;;21.15;5.28;;;;;;;;;;5021594;28;20417;-68
2023/08/01 00:58:09;;;;;;;14.32;4.88;;;;;;;;;;5012769;28;20040;-68
2023/08/01 01:00:34;;;;;;;12.10;4.50;;;;;;;;;;5016867;28;20036;-69
2023/08/01 01:03:00;;;;;;;29.65;5.00;;;;;;;;;;5012944;28;20112;-68
2023/08/01 01:05:27;;;;;;;17.95;4.18;;;;;;;;;;5019953;28;20425;-68
2023/08/01 01:07:53;;;;;;;22.75;4.93;;;;;;;;;;5011818;28;20089;-68
2023/08/01 01:10:18;;;;;;;27.70;5.70;;;;;;;;;;5016733;28;20461;-68
2023/08/01 01:12:44;;;;;;;22.60;5.43;;;;;;;;;;5011223;28;20022;-68
2023/08/01 01:15:09;;;;;;;20.80;5.10;;;;;;;;;;5016743;28;20397;-68
2023/08/01 01:17:34;;;;;;;23.25;4.55;;;;;;;;;;5013033;28;20042;-69
2023/08/01 01:20:00;;;;;;;15.95;4.57;;;;;;;;;;5013234;28;20026;-69
2023/08/01 01:22:25;;;;;;;24.15;4.72;;;;;;;;;;5011563;28;20034;-68
2023/08/01 01:24:52;;;;;;;21.13;5.13;;;;;;;;;;5016201;28;20539;-68
2023/08/01 01:27:18;;;;;;;23.65;4.55;;;;;;;;;;5007447;28;20034;-68
2023/08/01 01:29:43;;;;;;;13.82;3.70;;;;;;;;;;5015500;28;20714;-68
2023/08/01 01:32:09;;;;;;;17.60;3.90;;;;;;;;;;5016283;28;20043;-68
2023/08/01 01:34:34;;;;;;;14.00;3.88;;;;;;;;;;5016511;28;20021;-69
2023/08/01 01:37:00;;;;;;;17.17;4.28;;;;;;;;;;5021103;28;20037;-68
2023/08/01 01:39:25;;;;;;;24.92;5.20;;;;;;;;;;5015279;28;20049;-68
2023/08/01 01:41:50;;;;;;;28.02;4.53;;;;;;;;;;5023313;28;20053;-68
2023/08/01 01:44:16;;;;;;;20.10;4.63;;;;;;;;;;5015683;28;20025;-68
2023/08/01 01:46:41;;;;;;;23.25;5.55;;;;;;;;;;5019649;28;20042;-68
2023/08/01 01:49:06;;;;;;;19.42;4.30;;;;;;;;;;5015513;28;20025;-68
2023/08/01 01:51:32;;;;;;;21.42;4.13;;;;;;;;;;5022305;28;20060;-68
2023/08/01 01:53:57;;;;;;;20.15;4.55;;;;;;;;;;5015422;28;20034;-68
2023/08/01 01:56:22;;;;;;;20.10;4.10;;;;;;;;;;5017125;28;20117;-68
2023/08/01 01:58:48;;;;;;;22.77;4.65;;;;;;;;;;5015742;28;20436;-68
2023/08/01 02:01:13;;;;;;;15.02;4.03;;;;;;;;;;5021111;28;20046;-68
2023/08/01 02:03:38;;;;;;;21.77;4.00;;;;;;;;;;5015365;28;20084;-68
2023/08/01 02:06:04;;;;;;;20.50;4.53;;;;;;;;;;5017778;28;20042;-69
2023/08/01 02:08:30;;;;;;;15.35;3.97;;;;;;;;;;5015476;28;20045;-68
2023/08/01 02:10:57;;;;;;;14.85;3.88;;;;;;;;;;5015374;28;20096;-68
2023/08/01 02:13:24;;;;;;;17.40;4.10;;;;;;;;;;5014346;28;20033;-68
2023/08/01 02:15:49;;;;;;;13.15;3.63;;;;;;;;;;5015617;28;20394;-69
2023/08/01 02:18:14;;;;;;;16.27;3.53;;;;;;;;;;5014925;28;20022;-68
2023/08/01 02:20:40;;;;;;;16.98;4.05;;;;;;;;;;5025127;28;20035;-68
2023/08/01 02:23:05;;;;;;;15.73;3.92;;;;;;;;;;5014848;28;20052;-69
2023/08/01 02:25:30;;;;;;;15.93;3.80;;;;;;;;;;5023956;28;20113;-68
2023/08/01 02:27:56;;;;;;;22.00;4.15;;;;;;;;;;5014931;28;20033;-68
2023/08/01 02:30:21;;;;;;;11.52;3.50;;;;;;;;;;5022215;28;20041;-68
2023/08/01 02:32:46;;;;;;;14.57;3.35;;;;;;;;;;5015031;28;20050;-68
2023/08/01 02:35:12;;;;;;;16.83;3.00;;;;;;;;;;5019305;28;20037;-68
2023/08/01 02:37:37;;;;;;;11.20;3.03;;;;;;;;;;5014934;28;20044;-68
2023/08/01 02:40:07;;;;;;;14.57;3.22;;;;;;;;;;5015951;28;20374;-69
2023/08/01 02:42:32;;;;;;;11.40;3.78;;;;;;;;;;5018431;28;20041;-68
2023/08/01 02:44:57;;;;;;;16.83;3.30;;;;;;;;;;5017392;28;20087;-68
2023/08/01 02:47:23;;;;;;;12.50;3.17;;;;;;;;;;5014824;28;20030;-68
2023/08/01 02:49:48;;;;;;;20.77;3.85;;;;;;;;;;5015802;28;20086;-68
2023/08/01 02:52:13;;;;;;;13.88;3.10;;;;;;;;;;5014593;28;20121;-68
2023/08/01 02:54:39;;;;;;;9.30;2.90;;;;;;;;;;5017153;28;20119;-68
2023/08/01 02:57:04;;;;;;;11.50;3.53;;;;;;;;;;5018420;28;20103;-68
2023/08/01 02:59:32;;;;;;;7.68;2.72;;;;;;;;;;5015596;28;20045;-68
2023/08/01 03:01:58;;;;;;;12.57;2.63;;;;;;;;;;5014622;28;20054;-68
2023/08/01 03:04:23;;;;;;;9.57;3.40;;;;;;;;;;5014406;28;20025;-69
2023/08/01 03:06:49;;;;;;;13.38;2.80;;;;;;;;;;5020501;28;20135;-68
2023/08/01 03:09:14;;;;;;;9.52;2.80;;;;;;;;;;5014291;28;20029;-68
2023/08/01 03:11:39;;;;;;;7.45;2.92;;;;;;;;;;5022473;28;20034;-68
2023/08/01 03:14:05;;;;;;;12.90;2.85;;;;;;;;;;5014272;28;20065;-68
2023/08/01 03:16:31;;;;;;;12.85;2.85;;;;;;;;;;5020683;28;20048;-68
2023/08/01 03:18:56;;;;;;;14.75;3.45;;;;;;;;;;5012519;28;20041;-68
2023/08/01 03:21:21;;;;;;;21.27;3.38;;;;;;;;;;5018700;28;20409;-68
2023/08/01 03:23:47;;;;;;;12.88;2.60;;;;;;;;;;5013807;28;20121;-68
2023/08/01 03:26:12;;;;;;;14.13;3.20;;;;;;;;;;5017179;28;20088;-69
2023/08/01 03:28:38;;;;;;;8.45;2.25;;;;;;;;;;5013935;28;20084;-68
2023/08/01 03:31:03;;;;;;;11.90;2.97;;;;;;;;;;5015635;28;20034;-69
2023/08/01 03:33:29;;;;;;;10.25;2.78;;;;;;;;;;5012753;28;20042;-68
2023/08/01 03:35:54;;;;;;;8.23;2.35;;;;;;;;;;5024826;28;20046;-68
2023/08/01 03:38:19;;;;;;;12.18;2.10;;;;;;;;;;5012878;28;20030;-68
2023/08/01 03:40:45;;;;;;;6.95;2.00;;;;;;;;;;5027464;28;20037;-68
2023/08/01 03:43:10;;;;;;;10.95;2.05;;;;;;;;;;5013657;28;20431;-68
2023/08/01 03:45:35;;;;;;;13.10;2.30;;;;;;;;;;5022455;28;20056;-68
2023/08/01 03:48:01;;;;;;;7.47;2.40;;;;;;;;;;5026368;28;20037;-68
2023/08/01 03:50:26;;;;;;;8.85;2.22;;;;;;;;;;5017788;28;20087;-68
2023/08/01 03:52:51;;;;;;;13.20;2.15;;;;;;;;;;5013799;28;20062;-68
2023/08/01 03:55:17;;;;;;;8.70;2.38;;;;;;;;;;5024715;28;20489;-68
2023/08/01 03:57:42;;;;;;;8.65;2.10;;;;;;;;;;5012181;28;20104;-68
2023/08/01 04:00:16;;;;;;;9.40;2.33;;;;;;;;;;5016582;28;20025;-68
2023/08/01 04:02:42;;;;;;;7.97;2.13;;;;;;;;;;5012588;28;20084;-68
2023/08/01 04:05:08;;;;;;;9.30;2.30;;;;;;;;;;5013332;28;20030;-68
2023/08/01 04:07:37;;;;;;;9.52;2.42;;;;;;;;;;5013810;28;20072;-68
2023/08/01 04:10:03;;;;;;;15.07;2.72;;;;;;;;;;5014724;28;20026;-68
2023/08/01 04:12:29;;;;;;;13.23;3.00;;;;;;;;;;5020486;28;20117;-68
2023/08/01 04:14:55;;;;;;;12.23;2.78;;;;;;;;;;5016136;28;20112;-68
2023/08/01 04:17:20;;;;;;;9.75;2.65;;;;;;;;;;5025013;28;20422;-68
2023/08/01 04:19:45;;;;;;;11.13;2.55;;;;;;;;;;5016611;28;20624;-68
2023/08/01 04:22:11;;;;;;;6.82;2.30;;;;;;;;;;5014214;28;20038;-68
2023/08/01 04:24:36;;;;;;;12.25;2.55;;;;;;;;;;5014486;28;20044;-68
2023/08/01 04:27:01;;;;;;;10.57;2.58;;;;;;;;;;5013506;28;20046;-68
2023/08/01 04:29:27;;;;;;;6.68;2.40;;;;;;;;;;5013796;28;20088;-68
2023/08/01 04:31:52;;;;;;;13.50;2.80;;;;;;;;;;5019736;28;20095;-68
2023/08/01 04:34:17;;;;;;;10.02;2.58;;;;;;;;;;5013264;28;20128;-68
2023/08/01 04:36:43;;;;;;;11.68;2.38;;;;;;;;;;5011742;28;20045;-68
2023/08/01 04:39:08;;;;;;;10.07;2.20;;;;;;;;;;5012157;28;20036;-69
2023/08/01 04:41:33;;;;;;;9.85;2.50;;;;;;;;;;5019357;28;20030;-69
2023/08/01 04:43:59;;;;;;;9.93;2.15;;;;;;;;;;5013298;28;20034;-68
2023/08/01 04:46:24;;;;;;;8.57;2.28;;;;;;;;;;5013509;28;20030;-68
2023/08/01 04:48:49;;;;;;;8.57;2.15;;;;;;;;;;5013074;28;20041;-68
2023/08/01 04:51:15;;;;;;;8.90;2.15;;;;;;;;;;5013707;28;20061;-68
2023/08/01 04:53:40;;;;;;;18.65;2.28;;;;;;;;;;5013177;28;20066;-68
2023/08/01 04:56:05;;;;;;;7.47;2.00;;;;;;;;;;5012919;28;20089;-69
2023/08/01 04:58:31;;;;;;;13.63;2.20;;;;;;;;;;5013169;28;20029;-68
2023/08/01 05:00:56;;;;;;;9.88;2.13;;;;;;;;;;5016897;28;20084;-68
2023/08/01 05:03:21;;;;;;;11.13;2.80;;;;;;;;;;5016714;28;20492;-68
2023/08/01 05:05:47;;;;;;;10.38;2.30;;;;;;;;;;5025050;28;20113;-68
2023/08/01 05:08:12;;;;;;;11.55;2.22;;;;;;;;;;5017075;28;20046;-68
2023/08/01 05:10:37;;;;;;;12.98;2.33;;;;;;;;;;5023007;28;20049;-68
2023/08/01 05:13:03;;;;;;;13.27;2.28;;;;;;;;;;5016663;28;20088;-68
2023/08/01 05:15:28;;;;;;;7.65;2.20;;;;;;;;;;5017700;28;20042;-68
2023/08/01 05:17:54;;;;;;;12.23;2.22;;;;;;;;;;5015241;28;20030;-68
2023/08/01 05:20:19;;;;;;;9.43;2.00;;;;;;;;;;5018712;28;20033;-68
2023/08/01 05:22:44;;;;;;;8.63;2.00;;;;;;;;;;5016360;28;20417;-68
2023/08/01 05:25:10;;;;;;;14.38;2.00;;;;;;;;;;5016068;28;20116;-68
2023/08/01 05:27:35;;;;;;;7.25;1.80;;;;;;;;;;5016326;28;20033;-68
2023/08/01 05:30:00;;;;;;;6.72;1.60;;;;;;;;;;5018869;28;20068;-68
2023/08/01 05:32:26;;;;;;;13.82;1.52;;;;;;;;;;5016237;28;20033;-68
2023/08/01 05:34:51;;;;;;;6.47;1.30;;;;;;;;;;5017215;28;20100;-69
2023/08/01 05:37:16;;;;;;;9.60;1.65;;;;;;;;;;5016203;28;20057;-68
2023/08/01 05:39:42;;;;;;;10.05;1.50;;;;;;;;;;5020063;28;20045;-68
2023/08/01 05:42:08;;;;;;;5.13;1.70;;;;;;;;;;5024752;28;20038;-69
2023/08/01 05:44:34;;;;;;;11.48;1.42;;;;;;;;;;5017077;28;20026;-69
2023/08/01 05:46:59;;;;;;;6.47;1.60;;;;;;;;;;5015878;28;20058;-69
2023/08/01 05:49:25;;;;;;;4.60;1.25;;;;;;;;;;5016034;28;20034;-69
2023/08/01 05:51:50;;;;;;;7.25;1.58;;;;;;;;;;5024880;28;20034;-68
2023/08/01 05:54:15;;;;;;;5.78;1.60;;;;;;;;;;5016285;28;20041;-69
2023/08/01 05:56:41;;;;;;;4.85;1.40;;;;;;;;;;5023859;28;20038;-69
2023/08/01 05:59:06;;;;;;;7.63;1.35;;;;;;;;;;5013239;28;20121;-69
2023/08/01 06:01:32;;;;;;;4.70;1.40;;;;;;;;;;5016971;28;20184;-69
2023/08/01 06:03:57;;;;;;;7.35;1.23;;;;;;;;;;5015456;28;20040;-69
2023/08/01 06:06:22;;;;;;;4.43;1.30;;;;;;;;;;5018290;28;20404;-69
2023/08/01 06:08:48;;;;;;;4.28;1.20;;;;;;;;;;5014841;28;20073;-69
2023/08/01 06:11:13;;;;;;;8.60;1.65;;;;;;;;;;5016368;28;20072;-68
2023/08/01 06:13:38;;;;;;;5.43;1.60;;;;;;;;;;5015440;28;20044;-69
2023/08/01 06:16:04;;;;;;;9.05;1.48;;;;;;;;;;5017140;28;20100;-69
2023/08/01 06:18:29;;;;;;;6.85;1.67;;;;;;;;;;5015064;28;20113;-69
2023/08/01 06:20:54;;;;;;;4.75;1.10;;;;;;;;;;5022262;28;20057;-69
2023/08/01 06:23:19;;;;;;;9.35;1.30;;;;;;;;;;5015094;28;20049;-69
2023/08/01 06:25:45;;;;;;;6.05;1.52;;;;;;;;;;5026494;28;20436;-70
2023/08/01 06:28:10;;;;;;;5.78;1.50;;;;;;;;;;5014929;28;20059;-69
2023/08/01 06:30:35;;;;;;;4.53;1.38;;;;;;;;;;5018884;28;20080;-69
2023/08/01 06:33:01;;;;;;;6.57;1.52;;;;;;;;;;5014713;28;20469;-69
2023/08/01 06:35:26;;;;;;;12.73;1.67;;;;;;;;;;5017641;28;20109;-69
2023/08/01 06:37:51;;;;;;;7.35;1.55;;;;;;;;;;5014926;28;20069;-70
2023/08/01 06:40:17;;;;;;;5.55;1.58;;;;;;;;;;5021337;28;20029;-68
2023/08/01 06:42:42;;;;;;;9.90;1.50;;;;;;;;;;5025540;28;20041;-68
2023/08/01 06:45:08;;;;;;;4.95;1.40;;;;;;;;;;5016536;28;20466;-71
2023/08/01 06:47:33;;;;;;;5.43;1.65;;;;;;;;;;5014963;28;20111;-69
2023/08/01 06:49:59;;;;;;;6.25;1.40;;;;;;;;;;5018057;28;20033;-69
2023/08/01 06:52:24;;;;;;;4.65;1.65;;;;;;;;;;5015256;28;20088;-69
2023/08/01 06:54:49;;;;;;;7.00;1.60;;;;;;;;;;5016233;28;20041;-70
2023/08/01 06:57:15;;;;;;;4.05;1.35;;;;;;;;;;5018684;28;20092;-70
2023/08/01 06:59:40;;;;;;;5.10;1.48;;;;;;;;;;5015934;28;20038;-70
2023/08/01 07:02:06;;;;;;;4.18;1.17;;;;;;;;;;5019315;28;20433;-69
2023/08/01 07:04:31;;;;;;;7.03;1.65;;;;;;;;;;5015482;28;20038;-70
2023/08/01 07:06:57;;;;;;;6.15;1.40;;;;;;;;;;5020280;28;20041;-70
2023/08/01 07:09:22;;;;;;;4.68;1.65;;;;;;;;;;5014477;28;20122;-70
2023/08/01 07:11:48;;;;;;;4.78;1.80;;;;;;;;;;5018350;28;20028;-70
2023/08/01 07:14:13;;;;;;;5.13;1.50;;;;;;;;;;5012976;28;20044;-70
2023/08/01 07:16:38;;;;;;;6.40;1.50;;;;;;;;;;5013762;28;20042;-70
2023/08/01 07:19:04;;;;;;;5.80;1.55;;;;;;;;;;5014406;28;20108;-68
2023/08/01 07:21:29;;;;;;;3.22;1.35;;;;;;;;;;5014065;28;20046;-68
2023/08/01 07:23:54;;;;;;;5.55;1.63;;;;;;;;;;5013348;28;20458;-70
2023/08/01 07:26:20;;;;;;;6.40;1.45;;;;;;;;;;5015405;28;20398;-70
2023/08/01 07:28:45;;;;;;;3.22;1.25;;;;;;;;;;5014295;28;20482;-70
2023/08/01 07:31:10;;;;;;;3.80;1.27;;;;;;;;;;5023606;28;20065;-68
2023/08/01 07:33:36;;;;;;;6.85;1.60;;;;;;;;;;5015794;28;20034;-68
2023/08/01 07:36:02;;;;;;;5.13;1.40;;;;;;;;;;5021227;28;20509;-67
2023/08/01 07:38:27;;;;;;;5.32;1.40;;;;;;;;;;5020098;28;20029;-70
2023/08/01 07:40:54;;;;;;;5.30;1.75;;;;;;;;;;5018759;28;20115;-68
2023/08/01 07:43:19;;;;;;;5.85;1.40;;;;;;;;;;5011783;28;20044;-68
2023/08/01 07:45:45;;;;;;;2.95;1.13;;;;;;;;;;5013881;28;20034;-68
2023/08/01 07:48:10;;;;;;;4.07;1.42;;;;;;;;;;5013704;28;20133;-68
2023/08/01 07:50:36;;;;;;;4.20;1.40;;;;;;;;;;5013700;28;20525;-68
2023/08/01 07:53:01;;;;;;;4.10;1.35;;;;;;;;;;5012465;28;20432;-68
2023/08/01 07:55:26;;;;;;;5.03;1.30;;;;;;;;;;5006908;28;20029;-70
2023/08/01 07:57:52;;;;;;;8.40;1.73;;;;;;;;;;5012274;28;20050;-70
2023/08/01 08:00:17;;;;;;;5.10;1.42;;;;;;;;;;5020629;28;20478;-70
2023/08/01 08:02:44;;;;;;;5.72;1.17;;;;;;;;;;5012986;28;20466;-71
2023/08/01 08:05:09;;;;;;;3.35;1.10;;;;;;;;;;5014166;28;20048;-71
2023/08/01 08:07:36;;;;;;;2.70;0.95;;;;;;;;;;5016338;28;20038;-70
2023/08/01 08:10:02;;;;;;;7.63;1.55;;;;;;;;;;5012930;28;20037;-69
2023/08/01 08:12:27;;;;;;;8.30;1.83;;;;;;;;;;5020904;28;20037;-69
2023/08/01 08:14:53;;;;;;;3.70;1.10;;;;;;;;;;5013913;28;20087;-70
2023/08/01 08:17:18;;;;;;;4.93;1.48;;;;;;;;;;5012379;28;20355;-69
2023/08/01 08:19:44;;;;;;;3.22;1.20;;;;;;;;;;5015030;28;20042;-70
2023/08/01 08:22:09;;;;;;;5.47;1.42;;;;;;;;;;5012900;28;20030;-70
2023/08/01 08:24:35;;;;;;;5.25;1.50;;;;;;;;;;5013253;28;20084;-70
2023/08/01 08:27:00;;;;;;;3.25;1.17;;;;;;;;;;5013072;28;20038;-69
2023/08/01 08:29:26;;;;;;;5.80;1.40;;;;;;;;;;5013312;28;20927;-70
2023/08/01 08:31:51;;;;;;;4.70;1.23;;;;;;;;;;5013392;28;20034;-69
2023/08/01 08:34:16;;;;;;;4.18;1.17;;;;;;;;;;5017462;28;20111;-69
2023/08/01 08:36:46;;;;;;;2.22;0.90;;;;;;;;;;5001172;28;20195;-70
2023/08/01 08:39:12;;;;;;;3.70;0.80;;;;;;;;;;5015836;28;20033;-70
2023/08/01 08:41:47;;;;;;;3.55;1.65;;;;;;;;;;4998603;28;20124;-71
2023/08/01 08:44:14;;;;;;;5.38;1.23;;;;;;;;;;5012728;28;20073;-70
2023/08/01 08:46:44;;;;;;;5.03;1.42;;;;;;;;;;5013183;28;20037;-69
2023/08/01 08:49:10;;;;;;;4.80;1.00;;;;;;;;;;5011184;28;20042;-69
2023/08/01 08:51:36;;;;;;;5.25;1.02;;;;;;;;;;5011875;28;20060;-69
2023/08/01 08:54:02;;;;;;;2.88;1.10;;;;;;;;;;5012714;28;20069;-69
2023/08/01 08:56:28;;;;;;;5.03;1.13;;;;;;;;;;5013099;28;20131;-68
2023/08/01 08:58:54;;;;;;;4.95;1.20;;;;;;;;;;5012051;28;20034;-69
2023/08/01 09:01:20;;;;;;;9.10;1.67;;;;;;;;;;5003370;28;20052;-69
2023/08/01 09:03:45;;;;;;;3.20;1.13;;;;;;;;;;5007006;28;20462;-69
2023/08/01 09:06:19;;;;;;;3.63;1.10;;;;;;;;;;5011696;28;20056;-70
2023/08/01 09:08:51;;;;;;;4.65;1.17;;;;;;;;;;5011299;28;20092;-70
2023/08/01 09:11:16;;;;;;;6.35;1.13;;;;;;;;;;5008023;28;20042;-70
2023/08/01 09:13:41;;;;;;;4.70;1.20;;;;;;;;;;5012721;28;20040;-69
2023/08/01 09:16:08;;;;;;;4.78;1.40;;;;;;;;;;5012117;28;20502;-69
2023/08/01 09:18:33;;;;;;;5.43;1.77;;;;;;;;;;5011719;28;20034;-68
2023/08/01 09:21:02;;;;;;;4.03;1.20;;;;;;;;;;5011861;28;20053;-69
2023/08/01 09:23:27;;;;;;;4.57;1.25;;;;;;;;;;5011637;28;20042;-69
2023/08/01 09:25:53;;;;;;;4.90;1.30;;;;;;;;;;5010622;28;20123;-69
2023/08/01 09:28:23;;;;;;;6.18;1.67;;;;;;;;;;5012824;28;20038;-70
2023/08/01 09:30:57;;;;;;;5.47;1.40;;;;;;;;;;5007741;28;20045;-70
2023/08/01 09:33:23;;;;;;;4.78;1.30;;;;;;;;;;5010810;28;20042;-69
2023/08/01 09:35:52;;;;;;;4.93;1.52;;;;;;;;;;5003178;28;20041;-70
2023/08/01 09:38:18;;;;;;;6.68;1.38;;;;;;;;;;5011854;28;20338;-70
2023/08/01 09:40:44;;;;;;;5.20;1.52;;;;;;;;;;5011688;28;20868;-70
2023/08/01 09:43:13;;;;;;;4.47;1.65;;;;;;;;;;5009939;28;20046;-71
2023/08/01 09:45:50;;;;;;;5.97;1.42;;;;;;;;;;5011123;28;20041;-69
2023/08/01 09:48:26;;;;;;;5.90;1.48;;;;;;;;;;5008693;28;20042;-70
2023/08/01 09:51:04;;;;;;;5.22;1.35;;;;;;;;;;5022397;28;20037;-70
2023/08/01 09:53:29;;;;;;;6.80;1.42;;;;;;;;;;5012203;28;20029;-70
2023/08/01 09:55:56;;;;;;;6.10;1.50;;;;;;;;;;5011656;28;20083;-70
2023/08/01 09:58:22;;;;;;;5.10;1.30;;;;;;;;;;5010691;28;20432;-70
2023/08/01 10:00:48;;;;;;;6.05;1.73;;;;;;;;;;5010223;28;20402;-70
2023/08/01 10:03:13;;;;;;;4.57;1.33;;;;;;;;;;5010119;28;20038;-71
2023/08/01 10:05:41;;;;;;;3.60;1.02;;;;;;;;;;5011004;28;20049;-69
2023/08/01 10:08:06;;;;;;;4.68;1.40;;;;;;;;;;5010681;28;20429;-69
2023/08/01 10:10:32;;;;;;;7.05;1.38;;;;;;;;;;5003001;28;20092;-70
2023/08/01 10:12:57;;;;;;;3.28;1.08;;;;;;;;;;5011364;28;20041;-70
2023/08/01 10:15:25;;;;;;;5.22;1.25;;;;;;;;;;5016272;28;20036;-70
2023/08/01 10:17:50;;;;;;;2.90;1.00;;;;;;;;;;5012974;28;20029;-70
2023/08/01 10:20:16;;;;;;;6.10;1.15;;;;;;;;;;5012993;28;20532;-69
2023/08/01 10:22:41;;;;;;;2.90;0.90;;;;;;;;;;5011561;28;20113;-69
2023/08/01 10:25:08;;;;;;;5.20;1.25;;;;;;;;;;5011761;28;20088;-69
2023/08/01 10:27:35;;;;;;;2.65;1.00;;;;;;;;;;5017661;28;20041;-70
2023/08/01 10:30:02;;;;;;;2.90;1.10;;;;;;;;;;5011671;28;20041;-71
2023/08/01 10:32:35;;;;;;;3.00;1.00;;;;;;;;;;5010953;28;20042;-69
2023/08/01 10:35:01;;;;;;;3.75;1.05;;;;;;;;;;5001785;28;20080;-70
2023/08/01 10:37:39;;;;;;;2.88;0.77;;;;;;;;;;5017983;28;20433;-69
2023/08/01 10:40:05;;;;;;;3.20;1.00;;;;;;;;;;5001957;28;20088;-70
2023/08/01 10:42:38;;;;;;;1.98;0.80;;;;;;;;;;5010635;28;20125;-70
2023/08/01 10:45:04;;;;;;;2.63;0.88;;;;;;;;;;5011945;28;20470;-70
2023/08/01 10:47:30;;;;;;;7.45;1.17;;;;;;;;;;5009114;28;20038;-70
2023/08/01 10:49:56;;;;;;;3.42;1.00;;;;;;;;;;5011138;28;20033;-70
2023/08/01 10:52:24;;;;;;;2.55;0.82;;;;;;;;;;5010073;28;20042;-69
2023/08/01 10:55:03;;;;;;;2.97;0.90;;;;;;;;;;5010843;28;20041;-70
2023/08/01 10:57:29;;;;;;;2.53;0.70;;;;;;;;;;5009171;28;20520;-69
2023/08/01 10:59:56;;;;;;;2.13;0.80;;;;;;;;;;5010861;28;20077;-70
2023/08/01 11:02:28;;;;;;;3.50;1.15;;;;;;;;;;5009203;28;20042;-69
2023/08/01 11:05:03;;;;;;;2.92;0.80;;;;;;;;;;5009819;28;20042;-70
2023/08/01 11:07:29;;;;;;;7.32;1.00;;;;;;;;;;5010182;28;20038;-70
2023/08/01 11:10:10;;;;;;;2.83;0.85;;;;;;;;;;5009509;28;20435;-69
2023/08/01 11:12:38;;;;;;;4.05;1.00;;;;;;;;;;5010151;28;20076;-69
2023/08/01 11:15:05;;;;;;;4.00;1.00;;;;;;;;;;5009438;28;20038;-69
2023/08/01 11:17:31;;;;;;;2.55;0.80;;;;;;;;;;5009816;28;20041;-69
2023/08/01 11:20:02;;;;;;;2.88;0.93;;;;;;;;;;5009702;28;20045;-69
2023/08/01 11:22:27;;;;;;;2.63;0.80;;;;;;;;;;4999827;28;20464;-69
2023/08/01 11:24:53;;;;;;;3.05;0.90;;;;;;;;;;5009726;28;20121;-70
2023/08/01 11:27:18;;;;;;;4.57;1.00;;;;;;;;;;5009275;28;20125;-70
2023/08/01 11:29:43;;;;;;;5.05;0.90;;;;;;;;;;5009271;28;20038;-69
2023/08/01 11:32:09;;;;;;;2.50;0.82;;;;;;;;;;5009230;28;20060;-70
2023/08/01 11:34:41;;;;;;;2.67;0.90;;;;;;;;;;5009662;28;20042;-69
2023/08/01 11:37:06;;;;;;;2.33;0.60;;;;;;;;;;5010455;28;20053;-69
2023/08/01 11:39:32;;;;;;;2.05;0.70;;;;;;;;;;5008983;28;20033;-69
2023/08/01 11:41:58;;;;;;;2.22;0.80;;;;;;;;;;5007794;28;20388;-70
2023/08/01 11:44:24;;;;;;;6.32;0.90;;;;;;;;;;5009715;28;20045;-70
2023/08/01 11:46:49;;;;;;;1.73;0.70;;;;;;;;;;5009408;28;20084;-70
2023/08/01 11:49:15;;;;;;;1.92;0.63;;;;;;;;;;5009427;28;20034;-69
2023/08/01 11:51:42;;;;;;;3.55;1.00;;;;;;;;;;5008229;28;20072;-69
2023/08/01 11:54:09;;;;;;;4.05;1.00;;;;;;;;;;5000081;28;20457;-69
2023/08/01 11:56:35;;;;;;;2.75;0.80;;;;;;;;;;5001241;28;20141;-69
2023/08/01 11:59:07;;;;;;;2.67;1.05;;;;;;;;;;5009483;28;20583;-70
2023/08/01 12:01:38;;;;;;;4.07;1.00;;;;;;;;;;5012254;28;20059;-69
2023/08/01 12:04:03;;;;;;;2.25;0.70;;;;;;;;;;5007970;28;20088;-69
2023/08/01 12:06:31;;;;;;;2.75;0.80;;;;;;;;;;5009950;28;20041;-71
2023/08/01 12:09:06;;;;;;;2.13;0.90;;;;;;;;;;5003241;28;20107;-69
2023/08/01 12:11:32;;;;;;;3.83;0.90;;;;;;;;;;5007146;28;20052;-71
2023/08/01 12:14:04;;;;;;;2.63;0.90;;;;;;;;;;5008593;28;20034;-70
2023/08/01 12:16:30;;;;;;;5.40;0.90;;;;;;;;;;5008466;28;20393;-69
2023/08/01 12:18:57;;;;;;;2.92;0.88;;;;;;;;;;5012254;28;20133;-70
2023/08/01 12:21:22;;;;;;;2.95;0.80;;;;;;;;;;5005675;28;20034;-69
2023/08/01 12:23:47;;;;;;;1.95;0.70;;;;;;;;;;5007931;28;20114;-70
2023/08/01 12:26:13;;;;;;;4.43;0.98;;;;;;;;;;5004672;28;20528;-70
2023/08/01 12:28:38;;;;;;;2.60;0.90;;;;;;;;;;5009995;28;20507;-69
2023/08/01 12:31:04;;;;;;;2.67;0.90;;;;;;;;;;5009332;28;20623;-69
2023/08/01 12:33:29;;;;;;;2.58;0.73;;;;;;;;;;5001495;28;20033;-70
2023/08/01 12:35:55;;;;;;;3.47;0.80;;;;;;;;;;5004329;28;20037;-70
2023/08/01 12:38:20;;;;;;;3.47;0.90;;;;;;;;;;5008655;28;20534;-70
2023/08/01 12:40:46;;;;;;;2.47;0.75;;;;;;;;;;5009972;28;20068;-69
2023/08/01 12:43:12;;;;;;;2.78;0.88;;;;;;;;;;5007742;28;20046;-69
2023/08/01 12:45:37;;;;;;;2.38;0.80;;;;;;;;;;5000179;28;20057;-69
2023/08/01 12:48:03;;;;;;;2.08;0.75;;;;;;;;;;4993162;28;20042;-69
2023/08/01 12:50:29;;;;;;;2.15;0.85;;;;;;;;;;5001441;28;20659;-70
2023/08/01 12:52:55;;;;;;;2.33;0.70;;;;;;;;;;5009979;28;20413;-70
2023/08/01 12:55:21;;;;;;;3.33;0.77;;;;;;;;;;5008448;28;20124;-70
2023/08/01 12:57:46;;;;;;;3.97;0.80;;;;;;;;;;5002452;28;20065;-69
2023/08/01 13:00:12;;;;;;;3.75;0.80;;;;;;;;;;5008949;28;20492;-69
2023/08/01 13:02:37;;;;;;;2.25;0.85;;;;;;;;;;5009225;28;20442;-69
2023/08/01 13:05:04;;;;;;;3.15;0.80;;;;;;;;;;4999685;28;20052;-70
2023/08/01 13:07:34;;;;;;;4.10;0.90;;;;;;;;;;5002259;28;20483;-69
2023/08/01 13:10:00;;;;;;;2.67;0.95;;;;;;;;;;5008490;28;20491;-70
2023/08/01 13:12:25;;;;;;;3.95;0.88;;;;;;;;;;5006822;28;20045;-69
2023/08/01 13:14:51;;;;;;;4.88;1.00;;;;;;;;;;5008769;28;20038;-69
2023/08/01 13:17:16;;;;;;;4.45;0.90;;;;;;;;;;5007911;28;20049;-69
2023/08/01 13:19:41;;;;;;;3.13;0.82;;;;;;;;;;5008902;28;20045;-69
2023/08/01 13:22:07;;;;;;;5.57;1.30;;;;;;;;;;5009875;28;20049;-69
2023/08/01 13:24:33;;;;;;;8.43;1.55;;;;;;;;;;5011927;28;20168;-69
2023/08/01 13:26:58;;;;;;;6.15;1.10;;;;;;;;;;5011638;28;20112;-70
2023/08/01 13:29:23;;;;;;;1.50;0.80;;;;;;;;;;5010928;28;20052;-68
2023/08/01 13:31:49;;;;;;;4.22;1.25;;;;;;;;;;5012642;28;20038;-69
2023/08/01 13:34:14;;;;;;;1.92;0.70;;;;;;;;;;5011737;28;20052;-69
2023/08/01 13:36:40;;;;;;;5.20;0.98;;;;;;;;;;5012022;28;20071;-69
2023/08/01 13:39:06;;;;;;;5.78;1.30;;;;;;;;;;5012034;28;20179;-69
2023/08/01 13:41:33;;;;;;;2.60;0.90;;;;;;;;;;5011337;28;20525;-69
2023/08/01 13:43:59;;;;;;;5.90;1.23;;;;;;;;;;5012010;28;20033;-70
2023/08/01 13:46:24;;;;;;;4.25;1.10;;;;;;;;;;5011895;28;20083;-69
2023/08/01 13:48:50;;;;;;;6.03;1.23;;;;;;;;;;5010996;28;20045;-69
2023/08/01 13:51:15;;;;;;;4.20;1.45;;;;;;;;;;5011223;28;20509;-70
2023/08/01 13:53:42;;;;;;;7.18;1.10;;;;;;;;;;5011184;28;20038;-69
2023/08/01 13:56:08;;;;;;;6.18;1.33;;;;;;;;;;5009984;28;20100;-69
2023/08/01 13:58:33;;;;;;;6.32;1.20;;;;;;;;;;5011617;28;20033;-69
2023/08/01 14:01:09;;;;;;;8.82;1.20;;;;;;;;;;5010617;28;20054;-69
2023/08/01 14:03:36;;;;;;;5.40;1.50;;;;;;;;;;5011999;28;20065;-69
2023/08/01 14:06:08;;;;;;;7.47;1.40;;;;;;;;;;5005399;28;20044;-69
2023/08/01 14:08:34;;;;;;;8.77;1.27;;;;;;;;;;5009646;28;20034;-69
2023/08/01 14:11:00;;;;;;;5.63;1.13;;;;;;;;;;5009774;28;20060;-69
2023/08/01 14:13:26;;;;;;;9.00;1.38;;;;;;;;;;5010961;28;20065;-69
2023/08/01 14:15:51;;;;;;;4.38;0.90;;;;;;;;;;5010677;28;20069;-70
2023/08/01 14:18:17;;;;;;;3.80;0.98;;;;;;;;;;5008869;28;20100;-71
2023/08/01 14:20:43;;;;;;;3.80;0.90;;;;;;;;;;5010634;28;20092;-69
2023/08/01 14:23:08;;;;;;;4.13;1.05;;;;;;;;;;5009423;28;21014;-69
2023/08/01 14:25:38;;;;;;;4.88;1.10;;;;;;;;;;5009416;28;20124;-69
2023/08/01 14:28:04;;;;;;;6.63;1.20;;;;;;;;;;5010781;28;20042;-69
2023/08/01 14:30:29;;;;;;;3.85;0.95;;;;;;;;;;5009932;28;20034;-70
2023/08/01 14:33:02;;;;;;;5.50;1.90;;;;;;;;;;5009038;28;20494;-70